Time;durP1;ratioP1;P1;durP2;ratioP2;P2;SDS_P1;SDS_P2;PMS_P1;PMS_P2;Temp;Humidity;BMP_temperature;BMP_pressure;BME280_temperature;BME280_humidity;BME280_pressure;Samples;Min_cycle;Max_cycle;Signal;HPM_P1;HPM_P2
2021/10/08 00:01:09;;;;;;;18.17;10.63;;;;;;;;;;4448201;32;20208;-51
2021/10/08 00:03:35;;;;;;;16.63;11.97;;;;;;;;;;4448894;32;20338;-51
2021/10/08 00:06:00;;;;;;;17.83;12.53;;;;;;;;;;4448890;32;20259;-52
2021/10/08 00:08:26;;;;;;;12.80;11.10;;;;;;;;;;4448592;32;20330;-51
2021/10/08 00:10:51;;;;;;;15.50;10.37;;;;;;;;;;4448928;32;20692;-52
2021/10/08 00:13:17;;;;;;;10.77;9.00;;;;;;;;;;4448875;32;20592;-51
2021/10/08 00:15:42;;;;;;;12.00;10.10;;;;;;;;;;4448451;32;20386;-52
2021/10/08 00:18:07;;;;;;;11.80;10.07;;;;;;;;;;4448221;32;20335;-51
2021/10/08 00:20:33;;;;;;;11.67;9.57;;;;;;;;;;4448327;32;20299;-52
2021/10/08 00:22:58;;;;;;;12.13;9.60;;;;;;;;;;4448719;32;20278;-51
2021/10/08 00:25:24;;;;;;;18.23;11.87;;;;;;;;;;4448513;32;20229;-52
2021/10/08 00:27:49;;;;;;;16.17;10.90;;;;;;;;;;4448676;32;20750;-51
2021/10/08 00:30:15;;;;;;;12.13;9.17;;;;;;;;;;4448336;32;20303;-52
2021/10/08 00:32:40;;;;;;;15.03;10.00;;;;;;;;;;4448174;32;20315;-51
2021/10/08 00:35:06;;;;;;;13.03;9.30;;;;;;;;;;4448361;32;20647;-52
2021/10/08 00:37:31;;;;;;;11.00;8.17;;;;;;;;;;4448173;32;20576;-51
2021/10/08 00:39:57;;;;;;;12.43;9.10;;;;;;;;;;4447861;32;20766;-51
2021/10/08 00:42:26;;;;;;;15.07;9.50;;;;;;;;;;4448008;32;20279;-51
2021/10/08 00:44:51;;;;;;;16.03;9.07;;;;;;;;;;4447923;32;20265;-53
2021/10/08 00:47:17;;;;;;;10.90;9.07;;;;;;;;;;4448302;32;20235;-51
2021/10/08 00:49:42;;;;;;;13.67;9.30;;;;;;;;;;4448130;32;20379;-51
2021/10/08 00:52:08;;;;;;;13.00;9.73;;;;;;;;;;4447996;32;20250;-51
2021/10/08 00:54:33;;;;;;;12.43;8.90;;;;;;;;;;4447481;32;20608;-51
2021/10/08 00:56:59;;;;;;;11.93;8.80;;;;;;;;;;4447782;32;20217;-51
2021/10/08 00:59:29;;;;;;;20.40;8.53;;;;;;;;;;4447750;32;20232;-52
2021/10/08 01:01:55;;;;;;;8.87;6.97;;;;;;;;;;4446403;32;20253;-52
2021/10/08 01:04:23;;;;;;;9.03;7.40;;;;;;;;;;4447522;32;20340;-51
2021/10/08 01:06:49;;;;;;;7.73;6.10;;;;;;;;;;4447886;32;20205;-51
2021/10/08 01:09:14;;;;;;;8.97;8.03;;;;;;;;;;4447554;32;20254;-52
2021/10/08 01:11:41;;;;;;;12.27;8.33;;;;;;;;;;4447680;32;20220;-51
2021/10/08 01:14:07;;;;;;;16.50;8.80;;;;;;;;;;4446426;32;20241;-52
2021/10/08 01:16:32;;;;;;;11.43;9.33;;;;;;;;;;4447831;32;20364;-52
2021/10/08 01:18:57;;;;;;;20.77;10.63;;;;;;;;;;4447464;32;20279;-52
2021/10/08 01:21:23;;;;;;;12.37;8.97;;;;;;;;;;4447517;32;20228;-52
2021/10/08 01:23:48;;;;;;;9.80;8.10;;;;;;;;;;4447703;32;20272;-53
2021/10/08 01:26:14;;;;;;;11.13;7.80;;;;;;;;;;4447344;32;20228;-52
2021/10/08 01:28:40;;;;;;;9.93;7.77;;;;;;;;;;4447702;32;20309;-53
2021/10/08 01:31:06;;;;;;;10.33;7.10;;;;;;;;;;4447437;32;20344;-52
2021/10/08 01:33:32;;;;;;;6.73;5.97;;;;;;;;;;4447433;32;20351;-52
2021/10/08 01:35:57;;;;;;;6.67;5.93;;;;;;;;;;4447847;32;20256;-51
2021/10/08 01:38:23;;;;;;;4.70;4.30;;;;;;;;;;4447294;32;20355;-51
2021/10/08 01:40:48;;;;;;;5.10;3.57;;;;;;;;;;4447406;32;20487;-52
2021/10/08 01:43:14;;;;;;;4.27;3.53;;;;;;;;;;4447350;32;20264;-51
2021/10/08 01:45:39;;;;;;;3.23;2.23;;;;;;;;;;4447673;32;20220;-51
2021/10/08 01:48:05;;;;;;;5.33;2.90;;;;;;;;;;4447469;32;20259;-52
2021/10/08 01:50:30;;;;;;;2.93;2.63;;;;;;;;;;4447130;32;20399;-52
2021/10/08 01:52:58;;;;;;;4.83;2.87;;;;;;;;;;4447448;32;20709;-54
2021/10/08 01:55:23;;;;;;;2.87;2.07;;;;;;;;;;4447488;32;20260;-51
2021/10/08 01:57:49;;;;;;;2.37;2.00;;;;;;;;;;4447574;32;20209;-52
2021/10/08 02:00:14;;;;;;;3.27;2.50;;;;;;;;;;4447329;32;20212;-52
2021/10/08 02:02:40;;;;;;;3.57;2.93;;;;;;;;;;4445813;32;20230;-52
2021/10/08 02:05:06;;;;;;;2.17;1.77;;;;;;;;;;4447694;32;20225;-52
2021/10/08 02:07:31;;;;;;;2.30;2.10;;;;;;;;;;4450551;32;20192;-52
2021/10/08 02:09:57;;;;;;;2.80;2.50;;;;;;;;;;4450473;32;20242;-52
2021/10/08 02:12:22;;;;;;;2.53;2.30;;;;;;;;;;4450240;32;20296;-52
2021/10/08 02:14:48;;;;;;;5.07;2.43;;;;;;;;;;4450508;32;20345;-50
2021/10/08 02:17:14;;;;;;;3.27;2.97;;;;;;;;;;4450017;32;20271;-51
2021/10/08 02:19:39;;;;;;;3.13;2.43;;;;;;;;;;4450500;32;20554;-51
2021/10/08 02:22:05;;;;;;;2.90;2.17;;;;;;;;;;4450002;32;20246;-50
2021/10/08 02:24:30;;;;;;;3.30;3.00;;;;;;;;;;4450046;32;20225;-51
2021/10/08 02:26:56;;;;;;;5.83;3.07;;;;;;;;;;4450213;32;20536;-51
2021/10/08 02:29:22;;;;;;;3.37;3.07;;;;;;;;;;4450254;32;20569;-51
2021/10/08 02:31:47;;;;;;;4.80;3.17;;;;;;;;;;4450391;32;20229;-52
2021/10/08 02:34:13;;;;;;;3.50;3.03;;;;;;;;;;4449581;32;20660;-51
2021/10/08 02:36:38;;;;;;;3.70;3.27;;;;;;;;;;4450213;32;20196;-51
2021/10/08 02:39:04;;;;;;;7.17;3.33;;;;;;;;;;4449994;32;20343;-51
2021/10/08 02:41:29;;;;;;;3.13;2.70;;;;;;;;;;4450389;32;20390;-52
2021/10/08 02:43:55;;;;;;;6.43;3.30;;;;;;;;;;4450056;32;20366;-52
2021/10/08 02:46:20;;;;;;;3.93;2.73;;;;;;;;;;4450042;32;20209;-51
2021/10/08 02:48:46;;;;;;;3.83;3.17;;;;;;;;;;4449627;32;20342;-51
2021/10/08 02:51:11;;;;;;;4.27;3.30;;;;;;;;;;4449262;32;20266;-52
2021/10/08 02:53:36;;;;;;;3.63;2.90;;;;;;;;;;4450325;32;20450;-51
2021/10/08 02:56:04;;;;;;;4.30;3.57;;;;;;;;;;4449945;32;20303;-51
2021/10/08 02:58:30;;;;;;;9.57;3.00;;;;;;;;;;4449823;32;20196;-51
2021/10/08 03:00:55;;;;;;;5.73;3.63;;;;;;;;;;4449389;32;20631;-51
2021/10/08 03:03:21;;;;;;;3.17;2.83;;;;;;;;;;4449884;32;20386;-51
2021/10/08 03:05:46;;;;;;;3.97;3.07;;;;;;;;;;4449807;32;20472;-52
2021/10/08 03:08:12;;;;;;;3.87;3.17;;;;;;;;;;4449556;32;20283;-52
2021/10/08 03:10:37;;;;;;;4.00;3.60;;;;;;;;;;4449338;32;20291;-52
2021/10/08 03:13:03;;;;;;;8.50;2.93;;;;;;;;;;4449757;32;20302;-54
2021/10/08 03:15:29;;;;;;;5.23;3.20;;;;;;;;;;4448321;32;20670;-52
2021/10/08 03:17:55;;;;;;;3.87;2.93;;;;;;;;;;4448942;32;20672;-53
2021/10/08 03:20:20;;;;;;;4.80;3.37;;;;;;;;;;4449504;32;20249;-52
2021/10/08 03:22:46;;;;;;;3.97;3.57;;;;;;;;;;4449346;32;20351;-52
2021/10/08 03:25:12;;;;;;;4.47;3.60;;;;;;;;;;4449231;32;20570;-52
2021/10/08 03:27:39;;;;;;;4.20;3.30;;;;;;;;;;4449517;32;20234;-52
2021/10/08 03:30:07;;;;;;;4.37;3.67;;;;;;;;;;4449529;32;20366;-53
2021/10/08 03:32:33;;;;;;;5.93;3.87;;;;;;;;;;4449119;32;20358;-52
2021/10/08 03:34:59;;;;;;;6.67;4.17;;;;;;;;;;4449331;32;20220;-52
2021/10/08 03:37:33;;;;;;;6.20;4.40;;;;;;;;;;4449173;32;20231;-52
2021/10/08 03:39:58;;;;;;;9.40;4.77;;;;;;;;;;4449458;32;20247;-53
2021/10/08 03:42:23;;;;;;;5.90;3.93;;;;;;;;;;4449370;32;20270;-52
2021/10/08 03:45:03;;;;;;;5.60;4.00;;;;;;;;;;4448986;32;20234;-52
2021/10/08 03:47:40;;;;;;;6.23;3.33;;;;;;;;;;4448895;32;20507;-53
2021/10/08 03:50:08;;;;;;;6.87;3.23;;;;;;;;;;4449094;32;20346;-52
2021/10/08 03:52:34;;;;;;;8.13;3.90;;;;;;;;;;4449014;32;20263;-53
2021/10/08 03:54:59;;;;;;;5.70;3.80;;;;;;;;;;4448064;32;20569;-52
2021/10/08 03:57:25;;;;;;;4.53;3.20;;;;;;;;;;4449009;32;20263;-52
2021/10/08 03:59:50;;;;;;;5.40;3.00;;;;;;;;;;4448994;32;20244;-52
2021/10/08 04:02:15;;;;;;;4.97;3.40;;;;;;;;;;4438684;32;20242;-52
2021/10/08 04:04:42;;;;;;;4.60;3.13;;;;;;;;;;4433399;32;20553;-52
2021/10/08 04:07:08;;;;;;;5.63;3.87;;;;;;;;;;4433439;32;20332;-53
2021/10/08 04:09:33;;;;;;;12.77;4.17;;;;;;;;;;4433456;32;20303;-52
2021/10/08 04:11:58;;;;;;;6.77;4.67;;;;;;;;;;4433305;32;20721;-52
2021/10/08 04:14:24;;;;;;;7.93;4.67;;;;;;;;;;4433516;32;20252;-52
2021/10/08 04:16:50;;;;;;;8.13;5.33;;;;;;;;;;4433333;32;20228;-52
2021/10/08 04:19:15;;;;;;;8.60;6.27;;;;;;;;;;4433290;32;20229;-52
2021/10/08 04:21:41;;;;;;;7.43;5.37;;;;;;;;;;4447087;32;20494;-51
2021/10/08 04:24:07;;;;;;;8.60;6.00;;;;;;;;;;4448870;32;20660;-52
2021/10/08 04:26:32;;;;;;;7.20;5.47;;;;;;;;;;4448533;32;20291;-52
2021/10/08 04:28:59;;;;;;;10.63;5.43;;;;;;;;;;4447690;32;20366;-52
2021/10/08 04:31:24;;;;;;;11.37;5.10;;;;;;;;;;4448341;32;20204;-52
2021/10/08 04:33:50;;;;;;;10.37;6.27;;;;;;;;;;4448333;32;20314;-54
2021/10/08 04:36:15;;;;;;;10.07;6.27;;;;;;;;;;4448029;32;20690;-52
2021/10/08 04:38:40;;;;;;;8.73;6.17;;;;;;;;;;4448503;32;20393;-52
2021/10/08 04:41:06;;;;;;;6.53;4.83;;;;;;;;;;4448015;32;20396;-52
2021/10/08 04:43:31;;;;;;;6.27;4.60;;;;;;;;;;4448296;32;20322;-54
2021/10/08 04:45:57;;;;;;;8.20;5.53;;;;;;;;;;4447997;32;20212;-52
2021/10/08 04:48:22;;;;;;;9.30;4.90;;;;;;;;;;4446950;32;20413;-52
2021/10/08 04:50:48;;;;;;;5.93;4.53;;;;;;;;;;4447732;32;20244;-52
2021/10/08 04:53:16;;;;;;;10.50;4.53;;;;;;;;;;4447350;32;20286;-52
2021/10/08 04:55:42;;;;;;;6.10;5.13;;;;;;;;;;4448056;32;20534;-52
2021/10/08 04:58:08;;;;;;;8.33;5.30;;;;;;;;;;4447735;32;20351;-53
2021/10/08 05:00:34;;;;;;;6.20;4.70;;;;;;;;;;4447922;32;20754;-52
2021/10/08 05:02:59;;;;;;;9.13;6.07;;;;;;;;;;4446930;32;20296;-52
2021/10/08 05:05:25;;;;;;;6.90;5.57;;;;;;;;;;4447402;32;20367;-52
2021/10/08 05:07:50;;;;;;;6.73;4.07;;;;;;;;;;4445978;32;20338;-51
2021/10/08 05:10:16;;;;;;;4.07;3.37;;;;;;;;;;4447144;32;20291;-53
2021/10/08 05:12:41;;;;;;;6.10;4.33;;;;;;;;;;4447330;32;20225;-52
2021/10/08 05:15:07;;;;;;;6.00;3.60;;;;;;;;;;4446025;32;20568;-52
2021/10/08 05:17:33;;;;;;;7.63;3.30;;;;;;;;;;4447193;32;20798;-53
2021/10/08 05:19:58;;;;;;;5.60;3.80;;;;;;;;;;4447523;32;20561;-51
2021/10/08 05:22:24;;;;;;;4.93;2.93;;;;;;;;;;4447298;32;20227;-52
2021/10/08 05:24:49;;;;;;;4.60;3.70;;;;;;;;;;4447300;32;20244;-51
2021/10/08 05:27:15;;;;;;;4.67;3.70;;;;;;;;;;4447014;32;20248;-52
2021/10/08 05:29:40;;;;;;;5.10;3.83;;;;;;;;;;4447372;32;20283;-52
2021/10/08 05:32:06;;;;;;;5.37;3.90;;;;;;;;;;4447130;32;20220;-52
2021/10/08 05:34:31;;;;;;;14.30;4.23;;;;;;;;;;4447099;32;20224;-52
2021/10/08 05:36:57;;;;;;;6.67;4.30;;;;;;;;;;4446932;32;20200;-53
2021/10/08 05:39:22;;;;;;;6.53;4.23;;;;;;;;;;4439390;32;20680;-52
2021/10/08 05:41:48;;;;;;;7.43;4.70;;;;;;;;;;4446763;32;20208;-53
2021/10/08 05:44:13;;;;;;;13.60;5.10;;;;;;;;;;4447055;32;20407;-52
2021/10/08 05:46:39;;;;;;;8.40;6.07;;;;;;;;;;4445978;32;20434;-52
2021/10/08 05:49:04;;;;;;;9.90;5.67;;;;;;;;;;4444985;32;20315;-52
2021/10/08 05:51:30;;;;;;;8.10;5.43;;;;;;;;;;4447267;32;20267;-53
2021/10/08 05:53:56;;;;;;;6.80;5.63;;;;;;;;;;4446864;32;20403;-52
2021/10/08 05:56:22;;;;;;;6.20;4.77;;;;;;;;;;4446776;32;20300;-52
2021/10/08 05:58:47;;;;;;;8.23;5.17;;;;;;;;;;4447142;32;20201;-52
2021/10/08 06:01:13;;;;;;;9.43;5.60;;;;;;;;;;4444846;32;20299;-52
2021/10/08 06:03:39;;;;;;;12.83;6.77;;;;;;;;;;4445904;32;20263;-52
2021/10/08 06:06:04;;;;;;;6.50;5.10;;;;;;;;;;4445170;32;20247;-52
2021/10/08 06:08:30;;;;;;;12.10;6.03;;;;;;;;;;4444905;32;20358;-52
2021/10/08 06:10:56;;;;;;;8.77;6.23;;;;;;;;;;4445233;32;20244;-52
2021/10/08 06:13:22;;;;;;;7.67;4.87;;;;;;;;;;4445222;32;20303;-53
2021/10/08 06:15:48;;;;;;;13.97;6.67;;;;;;;;;;4445068;32;20237;-53
2021/10/08 06:18:13;;;;;;;9.13;7.07;;;;;;;;;;4446157;32;20671;-51
2021/10/08 06:20:39;;;;;;;9.47;6.97;;;;;;;;;;4447507;32;20288;-52
2021/10/08 06:23:04;;;;;;;13.70;8.20;;;;;;;;;;4446574;32;20287;-52
2021/10/08 06:25:30;;;;;;;10.10;7.53;;;;;;;;;;4445625;32;20245;-52
2021/10/08 06:27:55;;;;;;;13.70;7.27;;;;;;;;;;4445398;32;20311;-53
2021/10/08 06:30:21;;;;;;;11.53;6.53;;;;;;;;;;4445800;32;20743;-52
2021/10/08 06:32:48;;;;;;;7.73;5.80;;;;;;;;;;4446477;32;20312;-52
2021/10/08 06:35:14;;;;;;;10.10;6.70;;;;;;;;;;4446331;32;20322;-52
2021/10/08 06:37:40;;;;;;;9.70;7.77;;;;;;;;;;4446495;32;20201;-52
2021/10/08 06:40:06;;;;;;;12.63;7.10;;;;;;;;;;4446874;32;20249;-52
2021/10/08 06:42:31;;;;;;;10.27;7.03;;;;;;;;;;4447012;32;20596;-53
2021/10/08 06:44:57;;;;;;;9.60;7.17;;;;;;;;;;4445680;32;20349;-53
2021/10/08 06:47:23;;;;;;;12.60;6.97;;;;;;;;;;4446442;32;20410;-52
2021/10/08 06:49:49;;;;;;;17.03;9.57;;;;;;;;;;4446599;32;20243;-52
2021/10/08 06:52:15;;;;;;;10.60;7.30;;;;;;;;;;4448257;32;20631;-52
2021/10/08 06:54:42;;;;;;;9.77;6.90;;;;;;;;;;4449091;32;20250;-53
2021/10/08 06:57:07;;;;;;;9.73;7.53;;;;;;;;;;4449205;32;20265;-51
2021/10/08 06:59:34;;;;;;;15.77;8.80;;;;;;;;;;4449776;32;20458;-53
2021/10/08 07:02:00;;;;;;;13.10;8.70;;;;;;;;;;4449105;32;20239;-53
2021/10/08 07:04:26;;;;;;;8.97;6.80;;;;;;;;;;4449923;32;20225;-53
2021/10/08 07:06:51;;;;;;;13.57;7.03;;;;;;;;;;4449348;32;20220;-53
2021/10/08 07:09:17;;;;;;;11.37;6.97;;;;;;;;;;4449236;32;20221;-52
2021/10/08 07:11:42;;;;;;;9.30;6.13;;;;;;;;;;4449221;32;20337;-52
2021/10/08 07:14:08;;;;;;;9.53;6.30;;;;;;;;;;4449142;32;20397;-52
2021/10/08 07:16:33;;;;;;;14.80;6.80;;;;;;;;;;4449277;32;20296;-52
2021/10/08 07:19:07;;;;;;;10.03;6.53;;;;;;;;;;4448813;32;20328;-53
2021/10/08 07:21:33;;;;;;;9.30;6.43;;;;;;;;;;4449054;32;21208;-53
2021/10/08 07:23:58;;;;;;;12.70;8.17;;;;;;;;;;4448822;32;20295;-53
2021/10/08 07:26:24;;;;;;;11.10;7.17;;;;;;;;;;4449115;32;20225;-52
2021/10/08 07:28:49;;;;;;;10.67;7.87;;;;;;;;;;4448991;32;20351;-53
2021/10/08 07:31:15;;;;;;;11.30;7.37;;;;;;;;;;4448989;32;20232;-53
2021/10/08 07:33:42;;;;;;;15.30;6.83;;;;;;;;;;4449271;32;20347;-52
2021/10/08 07:36:08;;;;;;;13.07;7.30;;;;;;;;;;4448985;32;20303;-52
2021/10/08 07:38:34;;;;;;;11.17;6.33;;;;;;;;;;4449328;32;20568;-53
2021/10/08 07:40:59;;;;;;;8.97;6.37;;;;;;;;;;4449190;32;20319;-52
2021/10/08 07:43:25;;;;;;;10.13;6.67;;;;;;;;;;4449591;32;20276;-52
2021/10/08 07:45:50;;;;;;;12.27;6.73;;;;;;;;;;4449551;32;20220;-52
2021/10/08 07:48:16;;;;;;;15.70;10.23;;;;;;;;;;4449221;32;20324;-52
2021/10/08 07:50:41;;;;;;;16.67;10.47;;;;;;;;;;4449434;32;20243;-52
2021/10/08 07:53:07;;;;;;;15.33;8.97;;;;;;;;;;4449574;32;20276;-54
2021/10/08 07:55:32;;;;;;;7.70;5.40;;;;;;;;;;4448941;32;20738;-52
2021/10/08 07:57:58;;;;;;;6.33;5.07;;;;;;;;;;4448686;32;20236;-52
2021/10/08 08:00:23;;;;;;;9.70;6.13;;;;;;;;;;4449032;32;20268;-52
2021/10/08 08:02:49;;;;;;;8.13;6.40;;;;;;;;;;4446686;32;20287;-52
2021/10/08 08:05:14;;;;;;;11.10;6.70;;;;;;;;;;4447208;32;20248;-54
2021/10/08 08:07:40;;;;;;;9.00;5.67;;;;;;;;;;4449235;32;20294;-53
2021/10/08 08:10:08;;;;;;;15.43;7.07;;;;;;;;;;4448801;32;20300;-52
2021/10/08 08:12:34;;;;;;;15.10;7.77;;;;;;;;;;4448607;32;20283;-52
2021/10/08 08:14:59;;;;;;;11.83;7.57;;;;;;;;;;4449416;32;20259;-52
2021/10/08 08:17:25;;;;;;;11.90;8.00;;;;;;;;;;4449448;32;20256;-52
2021/10/08 08:19:50;;;;;;;14.03;9.07;;;;;;;;;;4449206;32;20279;-52
2021/10/08 08:22:16;;;;;;;15.47;9.33;;;;;;;;;;4448788;32;20220;-51
2021/10/08 08:24:41;;;;;;;13.30;9.13;;;;;;;;;;4449267;32;20601;-52
2021/10/08 08:27:07;;;;;;;13.90;10.10;;;;;;;;;;4448750;32;20306;-52
2021/10/08 08:29:32;;;;;;;11.83;9.70;;;;;;;;;;4449523;32;20329;-52
2021/10/08 08:31:58;;;;;;;13.67;8.80;;;;;;;;;;4449447;32;20299;-52
2021/10/08 08:34:25;;;;;;;16.30;10.40;;;;;;;;;;4449096;32;20319;-52
2021/10/08 08:36:50;;;;;;;23.70;9.97;;;;;;;;;;4449069;32;20607;-52
2021/10/08 08:39:18;;;;;;;15.47;10.53;;;;;;;;;;4449033;32;20251;-52
2021/10/08 08:41:43;;;;;;;16.00;9.73;;;;;;;;;;4448010;32;20288;-52
2021/10/08 08:44:09;;;;;;;20.40;12.60;;;;;;;;;;4448827;32;20310;-52
2021/10/08 08:46:34;;;;;;;13.63;9.27;;;;;;;;;;4448652;32;20213;-52
2021/10/08 08:49:01;;;;;;;13.23;8.33;;;;;;;;;;4448820;32;20317;-54
2021/10/08 08:51:27;;;;;;;14.93;8.73;;;;;;;;;;4448876;32;20291;-52
2021/10/08 08:53:54;;;;;;;9.17;5.20;;;;;;;;;;4448646;32;20339;-53
2021/10/08 08:56:20;;;;;;;7.10;4.57;;;;;;;;;;4447606;32;20220;-52
2021/10/08 08:58:46;;;;;;;8.17;4.70;;;;;;;;;;4448740;32;20268;-52
2021/10/08 09:01:11;;;;;;;24.03;15.30;;;;;;;;;;4448423;32;20256;-52
2021/10/08 09:03:37;;;;;;;13.67;8.60;;;;;;;;;;4449529;32;20284;-53
2021/10/08 09:06:02;;;;;;;5.37;3.40;;;;;;;;;;4449503;32;20362;-52
2021/10/08 09:08:32;;;;;;;13.20;8.10;;;;;;;;;;4447885;32;20364;-52
2021/10/08 09:10:59;;;;;;;5.50;2.80;;;;;;;;;;4449430;32;20221;-52
2021/10/08 09:13:27;;;;;;;6.97;5.17;;;;;;;;;;4449375;32;20633;-53
2021/10/08 09:15:57;;;;;;;2.57;2.23;;;;;;;;;;4448767;32;20336;-53
2021/10/08 09:18:25;;;;;;;2.83;2.50;;;;;;;;;;4449001;32;20766;-52
2021/10/08 09:21:04;;;;;;;3.57;2.87;;;;;;;;;;4448713;32;20228;-53
2021/10/08 09:23:35;;;;;;;6.10;3.40;;;;;;;;;;4448794;32;20344;-52
2021/10/08 09:26:02;;;;;;;5.47;3.93;;;;;;;;;;4447573;32;20236;-52
2021/10/08 09:28:28;;;;;;;6.27;4.53;;;;;;;;;;4448644;32;20576;-53
2021/10/08 09:30:54;;;;;;;7.13;5.03;;;;;;;;;;4448206;32;20248;-52
2021/10/08 09:33:22;;;;;;;11.03;6.20;;;;;;;;;;4448159;32;20444;-53
2021/10/08 09:35:51;;;;;;;8.67;5.80;;;;;;;;;;4448783;32;20578;-53
2021/10/08 09:38:17;;;;;;;11.47;6.93;;;;;;;;;;4448275;32;20267;-52
2021/10/08 09:40:51;;;;;;;9.10;6.23;;;;;;;;;;4448621;32;20911;-52
2021/10/08 09:43:23;;;;;;;11.77;7.33;;;;;;;;;;4448225;32;20270;-52
2021/10/08 09:45:51;;;;;;;8.83;5.73;;;;;;;;;;4448353;32;20731;-53
2021/10/08 09:48:21;;;;;;;12.97;6.93;;;;;;;;;;4447792;32;20558;-53
2021/10/08 09:51:05;;;;;;;10.77;5.63;;;;;;;;;;4447864;32;20350;-54
2021/10/08 09:53:33;;;;;;;9.30;6.83;;;;;;;;;;4447703;32;20271;-52
2021/10/08 09:55:59;;;;;;;10.20;6.27;;;;;;;;;;4448084;32;20245;-53
2021/10/08 09:58:24;;;;;;;8.03;5.47;;;;;;;;;;4447650;32;20321;-52
2021/10/08 10:01:06;;;;;;;6.30;4.20;;;;;;;;;;4446879;32;20680;-53
2021/10/08 10:03:32;;;;;;;4.90;3.43;;;;;;;;;;4432509;32;20264;-52
2021/10/08 10:06:02;;;;;;;5.23;3.30;;;;;;;;;;4432775;32;20221;-53
2021/10/08 10:08:28;;;;;;;7.40;3.23;;;;;;;;;;4432401;32;20643;-53
2021/10/08 10:10:55;;;;;;;4.27;2.87;;;;;;;;;;4431968;32;20298;-52
2021/10/08 10:13:21;;;;;;;6.23;3.67;;;;;;;;;;4431401;32;20201;-52
2021/10/08 10:15:48;;;;;;;13.50;5.87;;;;;;;;;;4432595;32;20766;-54
2021/10/08 10:18:16;;;;;;;22.70;9.80;;;;;;;;;;4443439;32;20267;-52
2021/10/08 10:20:50;;;;;;;9.87;6.23;;;;;;;;;;4447831;32;20256;-53
2021/10/08 10:23:18;;;;;;;9.13;4.97;;;;;;;;;;4447309;32;20239;-52
2021/10/08 10:25:46;;;;;;;5.27;3.60;;;;;;;;;;4447420;32;20224;-52
2021/10/08 10:28:12;;;;;;;4.70;2.50;;;;;;;;;;4450303;32;20212;-52
2021/10/08 10:30:39;;;;;;;10.73;4.40;;;;;;;;;;4450903;32;20327;-52
2021/10/08 10:33:06;;;;;;;4.27;2.43;;;;;;;;;;4450125;32;20366;-53
2021/10/08 10:35:44;;;;;;;4.17;2.23;;;;;;;;;;4450625;32;20233;-52
2021/10/08 10:38:28;;;;;;;5.77;2.50;;;;;;;;;;4450451;32;20352;-52
2021/10/08 10:41:13;;;;;;;6.43;2.90;;;;;;;;;;4449064;32;20819;-52
2021/10/08 10:43:43;;;;;;;4.47;2.87;;;;;;;;;;4441995;32;20228;-52
2021/10/08 10:46:46;;;;;;;5.13;3.03;;;;;;;;;;4450361;32;20224;-53
2021/10/08 10:49:56;;;;;;;7.87;4.90;;;;;;;;;;4440505;32;20360;-51
2021/10/08 10:52:03;;;;;;;6.27;4.63;;;;;;;;;;4445752;32;20264;-52
2021/10/08 10:54:53;;;;;;;9.57;4.90;;;;;;;;;;4450669;32;20232;-52
2021/10/08 10:57:19;;;;;;;4.10;3.17;;;;;;;;;;4442666;32;20255;-52
2021/10/08 10:59:46;;;;;;;4.27;2.50;;;;;;;;;;4450385;32;20644;-52
2021/10/08 11:02:20;;;;;;;3.50;2.33;;;;;;;;;;4449897;32;20245;-51
2021/10/08 11:04:54;;;;;;;2.77;2.33;;;;;;;;;;4450640;32;20208;-52
2021/10/08 11:07:22;;;;;;;3.60;2.23;;;;;;;;;;4450171;32;20275;-52
2021/10/08 11:10:11;;;;;;;3.03;2.10;;;;;;;;;;4450465;32;20224;-52
2021/10/08 11:12:42;;;;;;;3.60;2.07;;;;;;;;;;4442300;32;20377;-52
2021/10/08 11:15:20;;;;;;;4.33;2.60;;;;;;;;;;4445458;32;20246;-51
2021/10/08 11:17:48;;;;;;;3.50;2.07;;;;;;;;;;4450303;32;20204;-52
2021/10/08 11:20:32;;;;;;;4.37;2.70;;;;;;;;;;4449474;32;20763;-54
2021/10/08 11:23:06;;;;;;;3.20;2.90;;;;;;;;;;4449976;32;20208;-51
2021/10/08 11:25:34;;;;;;;3.97;3.07;;;;;;;;;;4450479;32;20274;-52
2021/10/08 11:28:00;;;;;;;5.50;3.13;;;;;;;;;;4450575;32;20204;-51
2021/10/08 11:30:28;;;;;;;4.23;2.97;;;;;;;;;;4450185;32;20587;-51
2021/10/08 11:32:56;;;;;;;4.13;2.77;;;;;;;;;;4446075;32;20248;-51
2021/10/08 11:35:30;;;;;;;4.97;3.17;;;;;;;;;;4434315;32;20245;-51
2021/10/08 11:37:55;;;;;;;3.53;2.80;;;;;;;;;;4434004;32;20533;-51
2021/10/08 11:40:28;;;;;;;4.40;3.10;;;;;;;;;;4434702;32;20252;-51
2021/10/08 11:43:01;;;;;;;4.10;2.87;;;;;;;;;;4437478;32;20248;-52
2021/10/08 11:45:36;;;;;;;2.90;2.43;;;;;;;;;;4450445;32;20240;-51
2021/10/08 11:48:13;;;;;;;2.13;1.80;;;;;;;;;;4450046;32;20533;-51
2021/10/08 11:53:06;;;;;;;3.43;2.00;;;;;;;;;;4450128;32;20272;-53
2021/10/08 11:55:38;;;;;;;4.63;2.57;;;;;;;;;;4450224;32;20631;-51
2021/10/08 11:58:08;;;;;;;3.10;2.13;;;;;;;;;;4450690;32;20318;-51
2021/10/08 12:00:39;;;;;;;4.33;3.20;;;;;;;;;;4449907;32;20326;-51
2021/10/08 12:03:13;;;;;;;10.77;5.37;;;;;;;;;;4434894;32;20217;-52
2021/10/08 12:05:40;;;;;;;15.37;10.70;;;;;;;;;;4434791;32;20527;-51
2021/10/08 12:08:06;;;;;;;16.47;8.80;;;;;;;;;;4434715;32;20204;-53
2021/10/08 12:10:31;;;;;;;10.70;7.17;;;;;;;;;;4443529;32;20749;-50
2021/10/08 12:12:59;;;;;;;8.63;4.80;;;;;;;;;;4449767;32;20272;-53
2021/10/08 12:15:28;;;;;;;3.43;2.20;;;;;;;;;;4450121;32;20712;-51
2021/10/08 12:17:56;;;;;;;2.03;1.70;;;;;;;;;;4449865;32;20246;-52
2021/10/08 12:20:33;;;;;;;2.67;1.93;;;;;;;;;;4449626;32;20586;-52
2021/10/08 12:23:23;;;;;;;1.90;1.73;;;;;;;;;;4450181;32;20342;-51
2021/10/08 12:25:53;;;;;;;2.83;2.03;;;;;;;;;;4449770;32;20270;-52
2021/10/08 12:28:23;;;;;;;2.50;1.77;;;;;;;;;;4450083;32;20273;-52
2021/10/08 12:30:52;;;;;;;3.87;2.63;;;;;;;;;;4449757;32;20259;-52
2021/10/08 12:33:35;;;;;;;3.20;1.93;;;;;;;;;;4443826;32;20229;-51
2021/10/08 12:36:17;;;;;;;2.83;2.20;;;;;;;;;;4442856;32;20224;-52
2021/10/08 12:39:04;;;;;;;6.40;2.00;;;;;;;;;;4449586;32;20678;-50
2021/10/08 12:41:43;;;;;;;3.17;2.33;;;;;;;;;;4449455;32;20192;-52
2021/10/08 12:44:15;;;;;;;3.93;2.60;;;;;;;;;;4449111;32;20273;-51
2021/10/08 12:46:43;;;;;;;7.13;2.37;;;;;;;;;;4449197;32;20492;-51
2021/10/08 12:49:10;;;;;;;5.13;3.13;;;;;;;;;;4448561;32;20235;-51
2021/10/08 12:51:51;;;;;;;10.57;6.93;;;;;;;;;;4449208;32;20250;-51
2021/10/08 12:54:22;;;;;;;5.93;3.77;;;;;;;;;;4449738;32;20591;-51
2021/10/08 12:57:09;;;;;;;2.30;1.80;;;;;;;;;;4449700;32;20224;-51
2021/10/08 12:59:54;;;;;;;4.67;2.07;;;;;;;;;;4449411;32;20286;-52
2021/10/08 13:02:22;;;;;;;4.40;2.50;;;;;;;;;;4449180;32;20223;-51
2021/10/08 13:04:48;;;;;;;16.40;12.00;;;;;;;;;;4448096;32;20620;-52
2021/10/08 13:07:18;;;;;;;9.17;5.30;;;;;;;;;;4448479;32;20309;-52
2021/10/08 13:10:19;;;;;;;13.90;7.60;;;;;;;;;;4449175;32;20208;-52
2021/10/08 13:12:55;;;;;;;6.67;4.83;;;;;;;;;;4449051;32;20223;-52
2021/10/08 13:15:31;;;;;;;6.10;3.57;;;;;;;;;;4449273;32;20244;-52
2021/10/08 13:17:58;;;;;;;4.67;3.17;;;;;;;;;;4448992;32;20599;-52
2021/10/08 13:20:23;;;;;;;14.27;7.03;;;;;;;;;;4447336;32;20323;-52
2021/10/08 13:22:49;;;;;;;21.83;5.90;;;;;;;;;;4448824;32;20686;-53
2021/10/08 13:25:15;;;;;;;7.43;4.50;;;;;;;;;;4449182;32;20623;-52
2021/10/08 13:27:40;;;;;;;4.83;3.83;;;;;;;;;;4448899;32;20263;-51
2021/10/08 13:30:06;;;;;;;6.77;3.33;;;;;;;;;;4448802;32;20330;-52
2021/10/08 13:32:31;;;;;;;2.87;2.27;;;;;;;;;;4448660;32;20200;-51
2021/10/08 13:34:57;;;;;;;3.30;2.70;;;;;;;;;;4449227;32;20324;-52
2021/10/08 13:37:22;;;;;;;4.10;3.03;;;;;;;;;;4448636;32;20311;-51
2021/10/08 13:39:48;;;;;;;2.47;2.20;;;;;;;;;;4447684;32;20597;-51
2021/10/08 13:42:14;;;;;;;3.77;2.23;;;;;;;;;;4448707;32;20298;-51
2021/10/08 13:44:40;;;;;;;2.47;2.10;;;;;;;;;;4448730;32;20355;-51
2021/10/08 13:47:06;;;;;;;4.33;2.00;;;;;;;;;;4448962;32;20201;-51
2021/10/08 13:49:31;;;;;;;4.40;2.10;;;;;;;;;;4448812;32;20291;-51
2021/10/08 13:51:57;;;;;;;3.33;2.13;;;;;;;;;;4448653;32;20235;-51
2021/10/08 13:54:22;;;;;;;4.13;2.07;;;;;;;;;;4448887;32;20247;-51
2021/10/08 13:56:48;;;;;;;5.20;2.40;;;;;;;;;;4449028;32;20251;-51
2021/10/08 13:59:13;;;;;;;7.13;3.57;;;;;;;;;;4448274;32;20362;-51
2021/10/08 14:02:00;;;;;;;5.23;3.00;;;;;;;;;;4446416;32;20710;-52
2021/10/08 14:05:14;;;;;;;4.53;2.63;;;;;;;;;;4450578;32;20624;-52
2021/10/08 14:07:32;;;;;;;3.73;2.93;;;;;;;;;;4443248;32;20236;-52
2021/10/08 14:10:16;;;;;;;6.33;3.77;;;;;;;;;;4451827;32;20248;-52
2021/10/08 14:12:43;;;;;;;7.03;3.80;;;;;;;;;;4451590;32;20216;-52
2021/10/08 14:15:09;;;;;;;7.03;3.83;;;;;;;;;;4451326;32;20313;-52
2021/10/08 14:17:34;;;;;;;8.97;4.60;;;;;;;;;;4451687;32;20575;-52
2021/10/08 14:20:03;;;;;;;5.00;3.63;;;;;;;;;;4451352;32;20220;-52
2021/10/08 14:22:29;;;;;;;10.13;4.50;;;;;;;;;;4451214;32;20559;-52
2021/10/08 14:24:54;;;;;;;6.80;4.10;;;;;;;;;;4451349;32;20313;-53
2021/10/08 14:27:19;;;;;;;8.30;3.70;;;;;;;;;;4450018;32;20249;-52
2021/10/08 14:29:45;;;;;;;9.67;4.30;;;;;;;;;;4451205;32;20293;-52
2021/10/08 14:32:10;;;;;;;6.50;4.53;;;;;;;;;;4450605;32;20259;-53
2021/10/08 14:34:36;;;;;;;8.43;4.63;;;;;;;;;;4450944;32;20297;-52
2021/10/08 14:37:01;;;;;;;5.30;3.70;;;;;;;;;;4450993;32;20189;-51
2021/10/08 14:39:27;;;;;;;12.60;4.63;;;;;;;;;;4450369;32;20228;-52
2021/10/08 14:41:53;;;;;;;9.47;4.07;;;;;;;;;;4448982;32;20303;-51
2021/10/08 14:44:19;;;;;;;6.33;4.77;;;;;;;;;;4449570;32;20636;-51